»·PEaware :: CGVZB YMML-YSSY

CGVZB :: YMML-YSSY

FLIGHT INFORMATION

Flight Status: Arrived
Operator: Unknown
More flights by this operator :: More flights under this callsign
Pilot: Alan S. (10569)
Aircraft: BOEING 767-300
(B763)
More flights by this aircraft type
Origin: YMML Melbourne Intl
Australia
Destination: YSSY Kingsford Smith Intl
Australia
More flights between these airports :: More routes between these airports
Route: DOSEL8 DOSEL Y59 RIVET RIVET2
File this flight plan on PilotEdge
Remarks: EQUIP / L @twitch.tv / aerosimgaming
Altitude:
(Current/Filed)
31,000ft
Speed:
(Current/Filed)
480kts
Departed: 20-Jun-16 12:44 AM
Arrived: 20-Jun-16 01:54 AM
Distance/Time
Traveled:
381nm/1:10
Distance/Time
To Go:
Arrived

Flight Plot

Page will automatically refresh every two minutes.


Map Options




Map Legend


Flown Route
Filed Route
Departure Airport
Arrival Airport
Navaid (VOR, NDB)
Fix

Horizontal Profiles

Position Reports

Time Latitude Longitude Heading Altitude Ground
Speed
20-Jun-16 00:07 -37.669025 144.843159 82 444ft 0kts
20-Jun-16 00:08 -37.669025 144.843159 82 444ft 0kts
20-Jun-16 00:09 -37.669025 144.843159 82 444ft 0kts
20-Jun-16 00:10 -37.669025 144.843159 82 444ft 0kts
20-Jun-16 00:11 -37.669025 144.843159 82 444ft 0kts
20-Jun-16 00:12 -37.669025 144.843159 82 444ft 0kts
20-Jun-16 00:13 -37.669025 144.843159 82 444ft 0kts
20-Jun-16 00:14 -37.669025 144.843159 82 444ft 0kts
20-Jun-16 00:15 -37.669025 144.843159 82 444ft 0kts
20-Jun-16 00:16 -37.669025 144.843159 82 444ft 0kts
20-Jun-16 00:17 -37.669024 144.843162 82 444ft 0kts
20-Jun-16 00:18 -37.669024 144.843162 82 444ft 0kts
20-Jun-16 00:19 -37.669026 144.843148 82 444ft 0kts
20-Jun-16 00:20 -37.669192 144.842095 17 444ft 1kts
20-Jun-16 00:21 -37.669290 144.842092 349 444ft 0kts
20-Jun-16 00:22 -37.669229 144.842077 349 444ft 0kts
20-Jun-16 00:23 -37.669229 144.842077 349 444ft 0kts
20-Jun-16 00:24 -37.669229 144.842077 349 444ft 0kts
20-Jun-16 00:25 -37.669066 144.842063 358 444ft 7kts
20-Jun-16 00:26 -37.665990 144.841562 351 444ft 13kts
20-Jun-16 00:27 -37.661877 144.840848 354 444ft 16kts
20-Jun-16 00:28 -37.657801 144.840054 351 444ft 18kts
20-Jun-16 00:29 -37.654153 144.839233 346 444ft 19kts
20-Jun-16 00:30 -37.653074 144.836768 261 444ft 1kts
20-Jun-16 00:31 -37.653074 144.836766 261 444ft 0kts
20-Jun-16 00:32 -37.653074 144.836766 261 444ft 0kts
20-Jun-16 00:33 -37.653074 144.836766 261 444ft 0kts
20-Jun-16 00:34 -37.653074 144.836766 261 444ft 0kts
20-Jun-16 00:35 -37.653074 144.836766 261 444ft 0kts
20-Jun-16 00:36 -37.653074 144.836766 261 444ft 0kts
20-Jun-16 00:37 -37.653074 144.836766 261 444ft 0kts
20-Jun-16 00:38 -37.653074 144.836766 261 444ft 0kts
20-Jun-16 00:39 -37.653074 144.836766 261 444ft 0kts
20-Jun-16 00:40 -37.653249 144.835437 259 444ft 10kts
20-Jun-16 00:41 -37.655297 144.835280 173 444ft 58kts
20-Jun-16 00:42 -37.697475 144.847151 163 2732ft 204kts
20-Jun-16 00:43 -37.758683 144.836042 225 5344ft 260kts
20-Jun-16 00:44 -37.757005 144.755337 300 9009ft 267kts
20-Jun-16 00:45 -37.687724 144.722194 5 11737ft 312kts
20-Jun-16 00:46 -37.602641 144.762900 34 14563ft 353kts
20-Jun-16 00:47 -37.523521 144.848246 37 17127ft 396kts
20-Jun-16 00:48 -37.431217 144.932957 49 19748ft 427kts
20-Jun-16 00:49 -37.359076 145.054818 54 22634ft 445kts
20-Jun-16 00:50 -37.286226 145.182759 54 25112ft 462kts
20-Jun-16 00:51 -37.210313 145.315985 54 27342ft 478kts
20-Jun-16 00:52 -37.131984 145.452832 54 29366ft 491kts
20-Jun-16 00:53 -37.052665 145.590735 54 31862ft 486kts
20-Jun-16 00:54 -36.974788 145.726520 54 33917ft 482kts
20-Jun-16 00:55 -36.897581 145.860051 54 34609ft 476kts
20-Jun-16 00:56 -36.824161 145.986194 54 34617ft 454kts
20-Jun-16 00:57 -36.747330 146.117732 54 34618ft 475kts
20-Jun-16 00:58 -36.670135 146.249366 54 34641ft 473kts
20-Jun-16 00:59 -36.592666 146.380953 54 34642ft 473kts
20-Jun-16 01:00 -36.515100 146.512196 54 34642ft 473kts
20-Jun-16 01:01 -36.437399 146.643163 54 34642ft 473kts
20-Jun-16 01:02 -36.361511 146.771671 53 34629ft 472kts
20-Jun-16 01:03 -36.297095 146.879595 53 34617ft 472kts
20-Jun-16 01:04 -36.206573 147.030512 53 34615ft 472kts
20-Jun-16 01:05 -36.128482 147.160147 53 34615ft 472kts
20-Jun-16 01:06 -36.062999 147.268474 53 34615ft 472kts
20-Jun-16 01:07 -35.984880 147.397259 53 34615ft 472kts
20-Jun-16 01:08 -35.906194 147.526494 53 34615ft 472kts
20-Jun-16 01:09 -35.828216 147.654098 52 34619ft 472kts
20-Jun-16 01:10 -35.750613 147.781683 52 34637ft 473kts
20-Jun-16 01:11 -35.674005 147.906225 52 34642ft 473kts
20-Jun-16 01:12 -35.594622 148.034707 52 34642ft 473kts
20-Jun-16 01:13 -35.514733 148.163520 52 34612ft 474kts
20-Jun-16 01:14 -35.435084 148.291473 52 34595ft 474kts
20-Jun-16 01:15 -35.355798 148.418368 52 34602ft 474kts
20-Jun-16 01:16 -35.276025 148.545602 52 34548ft 475kts
20-Jun-16 01:17 -35.196325 148.672364 52 34534ft 475kts
20-Jun-16 01:18 -35.117273 148.798456 52 34533ft 475kts
20-Jun-16 01:19 -35.036500 148.925946 52 34533ft 475kts
20-Jun-16 01:20 -34.955663 149.053006 52 34533ft 475kts
20-Jun-16 01:21 -34.875975 149.177814 52 34103ft 477kts
20-Jun-16 01:22 -34.811020 149.279265 52 31828ft 479kts
20-Jun-16 01:23 -34.732010 149.409266 61 28895ft 483kts
20-Jun-16 01:24 -34.668569 149.553553 62 26754ft 489kts
20-Jun-16 01:25 -34.607114 149.694178 62 24492ft 493kts
20-Jun-16 01:26 -34.545665 149.834562 61 22809ft 401kts
20-Jun-16 01:27 -34.496193 149.946486 61 21582ft 369kts
20-Jun-16 01:28 -34.448164 150.054867 61 20160ft 361kts
20-Jun-16 01:29 -34.401049 150.160869 61 18774ft 354kts
20-Jun-16 01:30 -34.355082 150.263979 61 17321ft 346kts
20-Jun-16 01:31 -34.309862 150.365120 61 15857ft 338kts
20-Jun-16 01:32 -34.265702 150.463735 61 14435ft 330kts
20-Jun-16 01:33 -34.222629 150.559901 61 12513ft 320kts
20-Jun-16 01:34 -34.181088 150.652410 61 10688ft 311kts
20-Jun-16 01:35 -34.143447 150.736767 61 10185ft 279kts
20-Jun-16 01:36 -34.106459 150.818777 60 9154ft 275kts
20-Jun-16 01:37 -34.075104 150.888385 60 8322ft 271kts
20-Jun-16 01:38 -34.039264 150.967826 60 7478ft 268kts
20-Jun-16 01:39 -34.057380 151.047353 131 6632ft 266kts
20-Jun-16 01:40 -34.115457 151.085822 167 5694ft 243kts
20-Jun-16 01:41 -34.181089 151.103415 168 4997ft 241kts
20-Jun-16 01:42 -34.246801 151.120664 166 4990ft 241kts
20-Jun-16 01:43 -34.264350 151.179523 59 4966ft 189kts
20-Jun-16 01:44 -34.226263 151.215194 22 4863ft 178kts
20-Jun-16 01:45 -34.179794 151.232878 356 4163ft 172kts
20-Jun-16 01:46 -34.132946 151.223856 347 3452ft 169kts
20-Jun-16 01:47 -34.088396 151.212797 346 2489ft 151kts
20-Jun-16 01:48 -34.048828 151.202585 345 1657ft 144kts
20-Jun-16 01:49 -34.010211 151.193235 346 929ft 139kts
20-Jun-16 01:50 -33.971844 151.182853 345 268ft 138kts
20-Jun-16 01:51 -33.944956 151.175420 317 32ft 37kts
20-Jun-16 01:52 -33.941309 151.172786 349 32ft 12kts
20-Jun-16 01:53 -33.937634 151.171861 350 32ft 13kts
20-Jun-16 01:54 -33.934229 151.170211 268 32ft 10kts

Navigation Log

Ident Type
Flight plan parsing failed, navigation log unavailable